Hovedside
METAR-TAF:

METAR-TAF

Lufthavner :

Grant County International Airport

Moses Lake, Washington, USA

breddegrad: 47-11-35N, lengdegrad: 119-18-48W, høyde over havet: 361 m

Gjeldene værobservasjon

Denne rapporten ble laget for 32 minutter siden, klokken 15:52 UTC
Vind 8 kt fra Nord-nordøst
Temperatur 12°C
Luftfuktighet 35%
Trykk 1021 hPa
Sikt: 16.1 km
Skyfri himmel

METAR: KMWH 091552Z 02008KT 10SM CLR 12/M03 A3015 RMK AO2 SLP209 T01171028

Tid: 09:24 (16:24 UTC)

Varsel

Denne rapporten ble laget for 4 timer og 59 minutter siden, klokken 11:25 UTC
Varsel gyldig fra 09. klokken 12 UTC til 10. klokken 12 UTC
Vind 5 kt fra Nord
Sikt: 10 km
Spredte skyer i en høyde av 25000 ft
Fra 09. klokken 2100 UTC
Vind 6 kt fra Sør-sørvest
Sikt: 10 km
Få skyer i en høyde av 25000 ft
Fra 10. klokken 0800 UTC
Vind 5 kt fra Nord-nordvest
Sikt: 10 km
Få skyer i en høyde av 25000 ft

TAF: KMWH 091125Z 0912/1012 35005KT P6SM SCT250 FM092100 20006KT P6SM FEW250 FM100800 33005KT P6SM FEW250

Værobservasjoner og værvarsel for over 4000 flyplasser (METAR- og TAF-rapporter).

Tilgjengelige stasjoner er representert av de røde og gule prikkene på kartet.

Hold musepekeren over prikken for å se navnet på stasjonen.

Klikk så for å se værobservasjoner og -varsler.

For å forandre kartet kan du klikke på den grønne knappen med svart kryss for å zoome inn, på den grønne knappen med strek for å zoome ut, eller på de grønne pilene for å se tilstøtende kart.


METAR-TAF: